createdAt,value
2019-03-05T00:00:49.338Z,993.63
2019-03-05T00:01:49.388Z,993.64
2019-03-05T00:03:42.369Z,993.64
2019-03-05T00:04:42.417Z,993.60
2019-03-05T00:06:35.418Z,993.58
2019-03-05T00:07:35.453Z,993.68
2019-03-05T00:09:28.434Z,993.62
2019-03-05T00:10:28.481Z,993.66
2019-03-05T00:12:21.466Z,993.73
2019-03-05T00:13:21.514Z,993.68
2019-03-05T00:15:14.494Z,993.61
2019-03-05T00:16:14.549Z,993.72
2019-03-05T00:18:07.534Z,993.68
2019-03-05T00:19:07.584Z,993.69
2019-03-05T00:21:00.557Z,993.68
2019-03-05T00:22:00.670Z,993.80
2019-03-05T00:23:53.596Z,993.77
2019-03-05T00:24:53.652Z,993.72
2019-03-05T00:26:46.623Z,993.77
2019-03-05T00:27:46.688Z,993.73
2019-03-05T00:29:39.677Z,993.75
2019-03-05T00:30:39.724Z,993.72
2019-03-05T00:32:32.710Z,993.77
2019-03-05T00:33:33.016Z,993.76
2019-03-05T00:35:25.736Z,993.79
2019-03-05T00:36:25.794Z,993.82
2019-03-05T00:38:18.766Z,993.70
2019-03-05T00:39:18.823Z,993.80
2019-03-05T00:41:11.796Z,993.95
2019-03-05T00:42:11.850Z,993.87
2019-03-05T00:44:04.835Z,993.91
2019-03-05T00:45:04.883Z,993.88
2019-03-05T00:46:57.858Z,993.93
2019-03-05T00:47:57.913Z,993.90
2019-03-05T00:49:50.900Z,993.94
2019-03-05T00:50:50.945Z,993.95
2019-03-05T00:52:43.936Z,993.97
2019-03-05T00:53:43.982Z,994.08
2019-03-05T00:55:36.982Z,993.96
2019-03-05T00:56:37.012Z,994.05
2019-03-05T00:58:29.992Z,994.02
2019-03-05T00:59:30.042Z,994.00
2019-03-05T01:01:23.530Z,994.02
2019-03-05T01:02:23.588Z,994.02
2019-03-05T01:04:16.563Z,994.04
2019-03-05T01:05:16.621Z,994.12
2019-03-05T01:07:09.600Z,994.00
2019-03-05T01:08:09.652Z,994.11
2019-03-05T01:10:02.637Z,994.12
2019-03-05T01:11:02.682Z,994.09
2019-03-05T01:12:55.666Z,994.21
2019-03-05T01:13:55.716Z,994.18
2019-03-05T01:15:48.706Z,994.21
2019-03-05T01:16:48.752Z,994.24
2019-03-05T01:18:41.739Z,994.15
2019-03-05T01:19:41.788Z,994.22
2019-03-05T01:21:34.772Z,994.12
2019-03-05T01:22:34.824Z,994.17
2019-03-05T01:24:27.808Z,994.24
2019-03-05T01:25:27.858Z,994.25
2019-03-05T01:27:20.834Z,994.28
2019-03-05T01:28:20.889Z,994.25
2019-03-05T01:30:13.867Z,994.29
2019-03-05T01:31:13.916Z,994.31
2019-03-05T01:33:06.904Z,994.34
2019-03-05T01:34:06.950Z,994.36
2019-03-05T01:35:59.928Z,994.36
2019-03-05T01:36:59.983Z,994.42
2019-03-05T01:38:52.981Z,994.34
2019-03-05T01:39:53.030Z,994.39
2019-03-05T01:41:46.005Z,994.43
2019-03-05T01:42:46.063Z,994.41
2019-03-05T01:44:39.045Z,994.32
2019-03-05T01:45:39.092Z,994.33
2019-03-05T01:47:32.093Z,994.37
2019-03-05T01:48:32.125Z,994.27
2019-03-05T01:50:25.111Z,994.41
2019-03-05T01:51:25.153Z,994.36
2019-03-05T01:53:18.149Z,994.36
2019-03-05T01:54:18.225Z,994.40
2019-03-05T01:56:11.171Z,994.34
2019-03-05T01:57:11.228Z,994.34
2019-03-05T01:59:04.219Z,994.46
2019-03-05T02:00:04.258Z,994.36
2019-03-05T02:01:57.236Z,994.40
2019-03-05T02:02:57.288Z,994.46
2019-03-05T02:04:50.280Z,994.45
2019-03-05T02:05:50.394Z,994.43
2019-03-05T02:07:43.298Z,994.45
2019-03-05T02:08:43.358Z,994.51
2019-03-05T02:10:36.338Z,994.48
2019-03-05T02:11:36.387Z,994.52
2019-03-05T02:13:29.370Z,994.39
2019-03-05T02:14:29.418Z,994.47
2019-03-05T02:16:22.394Z,994.48
2019-03-05T02:17:22.451Z,994.43
2019-03-05T02:19:15.430Z,994.55
2019-03-05T02:20:15.492Z,994.49
2019-03-05T02:22:08.466Z,994.46
2019-03-05T02:23:08.519Z,994.44
2019-03-05T02:25:01.496Z,994.57
2019-03-05T02:26:01.548Z,994.46
2019-03-05T02:27:54.520Z,994.46
2019-03-05T02:28:54.579Z,994.58
2019-03-05T02:30:47.565Z,994.55
2019-03-05T02:31:47.627Z,994.46
2019-03-05T02:33:40.603Z,994.61
2019-03-05T02:34:40.651Z,994.61
2019-03-05T02:36:33.625Z,994.52
2019-03-05T02:37:33.681Z,994.59
2019-03-05T02:39:26.662Z,994.50
2019-03-05T02:40:26.712Z,994.47
2019-03-05T02:42:19.692Z,994.53
2019-03-05T02:43:19.742Z,994.59
2019-03-05T02:45:12.726Z,994.63
2019-03-05T02:46:12.778Z,994.58
2019-03-05T02:48:05.747Z,994.68
2019-03-05T02:49:05.810Z,994.76
2019-03-05T02:50:58.786Z,994.65
2019-03-05T02:51:58.882Z,994.72
2019-03-05T02:53:51.818Z,994.73
2019-03-05T02:54:51.867Z,994.65
2019-03-05T02:56:44.842Z,994.63
2019-03-05T02:57:45.148Z,994.67
2019-03-05T02:59:37.996Z,994.67
2019-03-05T03:00:37.948Z,994.63
2019-03-05T03:02:30.928Z,994.73
2019-03-05T03:03:30.991Z,994.75
2019-03-05T03:05:24.001Z,994.72
2019-03-05T03:06:24.019Z,994.66
2019-03-05T03:08:17.019Z,994.73
2019-03-05T03:09:17.053Z,994.63
2019-03-05T03:11:10.034Z,994.72
2019-03-05T03:12:10.078Z,994.75
2019-03-05T03:14:03.064Z,994.72
2019-03-05T03:15:03.119Z,994.67
2019-03-05T03:16:56.090Z,994.75
2019-03-05T03:17:56.445Z,994.80
2019-03-05T03:19:49.125Z,994.81
2019-03-05T03:20:49.174Z,994.91
2019-03-05T03:22:42.151Z,994.84
2019-03-05T03:23:42.205Z,994.92
2019-03-05T03:25:35.191Z,994.97
2019-03-05T03:26:35.236Z,994.96
2019-03-05T03:28:28.220Z,994.99
2019-03-05T03:29:28.269Z,994.99
2019-03-05T03:31:21.268Z,994.96
2019-03-05T03:32:21.315Z,994.96
2019-03-05T03:34:14.302Z,994.91
2019-03-05T03:35:14.483Z,994.99
2019-03-05T03:37:07.325Z,994.94
2019-03-05T03:38:07.381Z,994.89
2019-03-05T03:40:00.447Z,994.97
2019-03-05T03:41:00.414Z,994.95
2019-03-05T03:42:53.386Z,995.03
2019-03-05T03:43:53.443Z,995.00
2019-03-05T03:45:46.430Z,995.03
2019-03-05T03:46:46.476Z,995.10
2019-03-05T03:48:39.447Z,995.13
2019-03-05T03:49:39.501Z,995.07
2019-03-05T03:51:32.485Z,995.11
2019-03-05T03:52:32.540Z,995.10
2019-03-05T03:54:25.512Z,995.06
2019-03-05T03:55:25.561Z,995.13
2019-03-05T03:57:18.565Z,995.20
2019-03-05T03:58:18.594Z,995.03
2019-03-05T04:00:11.583Z,995.10
2019-03-05T04:01:11.658Z,995.08
2019-03-05T04:03:04.619Z,995.11
2019-03-05T04:04:04.673Z,995.12
2019-03-05T04:05:57.653Z,995.19
2019-03-05T04:06:57.703Z,995.19
2019-03-05T04:08:50.688Z,995.17
2019-03-05T04:09:50.743Z,995.20
2019-03-05T04:11:43.724Z,995.17
2019-03-05T04:12:43.784Z,995.16
2019-03-05T04:14:36.763Z,995.29
2019-03-05T04:15:36.828Z,995.27
2019-03-05T04:17:29.787Z,995.26
2019-03-05T04:18:29.842Z,995.22
2019-03-05T04:20:22.825Z,995.24
2019-03-05T04:21:22.873Z,995.30
2019-03-05T04:23:15.850Z,995.23
2019-03-05T04:24:15.907Z,995.28
2019-03-05T04:26:08.897Z,995.31
2019-03-05T04:27:08.936Z,995.31
2019-03-05T04:29:01.937Z,995.30
2019-03-05T04:30:01.977Z,995.35
2019-03-05T04:31:54.955Z,995.27
2019-03-05T04:32:54.995Z,995.33
2019-03-05T04:34:47.981Z,995.25
2019-03-05T04:35:48.024Z,995.26
2019-03-05T04:37:40.998Z,995.30
2019-03-05T04:38:41.055Z,995.24
2019-03-05T04:40:34.039Z,995.21
2019-03-05T04:41:34.091Z,995.27
2019-03-05T04:43:27.061Z,995.39
2019-03-05T04:44:27.116Z,995.36
2019-03-05T04:46:20.098Z,995.40
2019-03-05T04:47:20.145Z,995.35
2019-03-05T04:49:13.126Z,995.43
2019-03-05T04:50:13.176Z,995.43
2019-03-05T04:52:06.161Z,995.36
2019-03-05T04:53:06.211Z,995.40
2019-03-05T04:54:59.198Z,995.38
2019-03-05T04:55:59.250Z,995.40
2019-03-05T04:57:52.223Z,995.46
2019-03-05T04:58:52.280Z,995.48
2019-03-05T05:00:45.249Z,995.49
2019-03-05T05:01:45.308Z,995.45
2019-03-05T05:03:38.283Z,995.43
2019-03-05T05:04:38.340Z,995.57
2019-03-05T05:06:31.324Z,995.38
2019-03-05T05:07:31.374Z,995.47
2019-03-05T05:09:24.356Z,995.56
2019-03-05T05:10:24.417Z,995.54
2019-03-05T05:12:17.392Z,995.44
2019-03-05T05:13:17.438Z,995.50
2019-03-05T05:15:10.417Z,995.48
2019-03-05T05:16:10.469Z,995.47
2019-03-05T05:18:03.444Z,995.51
2019-03-05T05:19:03.501Z,995.45
2019-03-05T05:20:56.482Z,995.47
2019-03-05T05:21:56.535Z,995.39
2019-03-05T05:23:49.504Z,995.41
2019-03-05T05:24:49.561Z,995.47
2019-03-05T05:26:42.544Z,995.42
2019-03-05T05:27:42.587Z,995.51
2019-03-05T05:29:35.572Z,995.45
2019-03-05T05:30:35.628Z,995.46
2019-03-05T05:32:28.611Z,995.44
2019-03-05T05:33:28.660Z,995.47
2019-03-05T05:35:21.646Z,995.48
2019-03-05T05:36:21.685Z,995.48
2019-03-05T05:38:14.663Z,995.41
2019-03-05T05:39:14.719Z,995.44
2019-03-05T05:41:07.724Z,995.52
2019-03-05T05:42:07.772Z,995.54
2019-03-05T05:44:00.745Z,995.55
2019-03-05T05:45:00.801Z,995.50
2019-03-05T05:46:53.789Z,995.56
2019-03-05T05:47:53.832Z,995.58
2019-03-05T05:49:46.824Z,995.61
2019-03-05T05:50:46.868Z,995.61
2019-03-05T05:52:39.849Z,995.65
2019-03-05T05:53:39.893Z,995.61
2019-03-05T05:55:32.887Z,995.53
2019-03-05T05:56:32.934Z,995.57
2019-03-05T05:58:25.911Z,995.56
2019-03-05T05:59:25.962Z,995.56
2019-03-05T06:01:19.456Z,995.60
2019-03-05T06:02:19.505Z,995.58
2019-03-05T06:04:12.483Z,995.52
2019-03-05T06:05:12.538Z,995.59
2019-03-05T06:07:05.519Z,995.55
2019-03-05T06:08:05.571Z,995.55
2019-03-05T06:09:58.544Z,995.41
2019-03-05T06:10:58.607Z,995.44
2019-03-05T06:12:51.598Z,995.39
2019-03-05T06:13:51.644Z,995.40
2019-03-05T06:15:44.623Z,995.38
2019-03-05T06:16:44.673Z,995.41
2019-03-05T06:18:37.650Z,995.51
2019-03-05T06:19:37.706Z,995.54
2019-03-05T06:21:30.686Z,995.62
2019-03-05T06:22:30.739Z,995.52
2019-03-05T06:24:23.706Z,995.54
2019-03-05T06:25:23.764Z,995.66
2019-03-05T06:27:16.743Z,995.65
2019-03-05T06:28:16.790Z,995.67
2019-03-05T06:30:09.771Z,995.74
2019-03-05T06:31:09.827Z,995.76
2019-03-05T06:33:02.815Z,995.71
2019-03-05T06:34:02.864Z,995.75
2019-03-05T06:35:55.842Z,995.81
2019-03-05T06:36:55.921Z,995.81
2019-03-05T06:38:48.863Z,995.88
2019-03-05T06:39:48.916Z,995.84
2019-03-05T06:41:41.903Z,995.91
2019-03-05T06:42:41.949Z,995.98
2019-03-05T06:44:34.927Z,995.97
2019-03-05T06:45:34.981Z,995.97
2019-03-05T06:47:27.959Z,996.02
2019-03-05T06:48:28.005Z,996.06
2019-03-05T06:50:20.999Z,996.16
2019-03-05T06:51:21.043Z,996.04
2019-03-05T06:53:14.029Z,996.07
2019-03-05T06:54:14.081Z,996.03
2019-03-05T06:56:07.121Z,995.98
2019-03-05T06:57:07.111Z,996.06
2019-03-05T06:59:00.105Z,996.03
2019-03-05T07:00:00.363Z,996.09
2019-03-05T07:01:53.633Z,996.08
2019-03-05T07:02:53.676Z,996.04
2019-03-05T07:04:47.158Z,996.10
2019-03-05T07:05:47.213Z,996.13
2019-03-05T07:07:40.187Z,996.14
2019-03-05T07:08:40.239Z,996.22
2019-03-05T07:10:33.219Z,996.16
2019-03-05T07:11:33.271Z,996.20
2019-03-05T07:13:26.257Z,996.19
2019-03-05T07:14:26.299Z,996.21
2019-03-05T07:16:19.290Z,996.23
2019-03-05T07:17:19.342Z,996.23
2019-03-05T07:19:12.318Z,996.24
2019-03-05T07:20:12.372Z,996.23
2019-03-05T07:22:05.359Z,996.33
2019-03-05T07:23:05.404Z,996.27
2019-03-05T07:24:58.383Z,996.28
2019-03-05T07:25:58.436Z,996.27
2019-03-05T07:27:51.434Z,996.33
2019-03-05T07:28:51.486Z,996.31
2019-03-05T07:30:44.447Z,996.33
2019-03-05T07:31:44.499Z,996.25
2019-03-05T07:33:37.484Z,996.36
2019-03-05T07:34:37.535Z,996.35
2019-03-05T07:36:30.520Z,996.37
2019-03-05T07:37:30.571Z,996.37
2019-03-05T07:39:23.548Z,996.43
2019-03-05T07:40:23.599Z,996.40
2019-03-05T07:42:16.581Z,996.45
2019-03-05T07:43:16.630Z,996.45
2019-03-05T07:45:09.608Z,996.50
2019-03-05T07:46:09.661Z,996.47
2019-03-05T07:48:02.652Z,996.50
2019-03-05T07:49:02.702Z,996.51
2019-03-05T07:50:55.679Z,996.46
2019-03-05T07:51:55.734Z,996.52
2019-03-05T07:53:48.715Z,996.48
2019-03-05T07:54:48.763Z,996.53
2019-03-05T07:56:41.750Z,996.61
2019-03-05T07:57:41.794Z,996.61
2019-03-05T07:59:34.773Z,996.61
2019-03-05T08:00:34.826Z,996.66
2019-03-05T08:02:27.815Z,996.72
2019-03-05T08:03:27.865Z,996.58
2019-03-05T08:05:20.846Z,996.59
2019-03-05T08:06:20.899Z,996.63
2019-03-05T08:08:13.881Z,996.70
2019-03-05T08:09:13.928Z,996.71
2019-03-05T08:11:06.908Z,996.71
2019-03-05T08:12:06.960Z,996.80
2019-03-05T08:13:59.939Z,996.83
2019-03-05T08:14:59.993Z,996.77
2019-03-05T08:16:52.975Z,996.82
2019-03-05T08:17:53.029Z,996.81
2019-03-05T08:19:46.028Z,996.92
2019-03-05T08:20:46.084Z,996.90
2019-03-05T08:22:39.072Z,997.00
2019-03-05T08:23:39.117Z,996.95
2019-03-05T08:25:32.093Z,996.94
2019-03-05T08:26:32.149Z,996.98
2019-03-05T08:28:25.143Z,997.00
2019-03-05T08:29:25.180Z,996.99
2019-03-05T08:31:18.158Z,997.02
2019-03-05T08:32:18.216Z,997.10
2019-03-05T08:34:11.195Z,997.09
2019-03-05T08:35:11.244Z,997.16
2019-03-05T08:37:04.228Z,997.23
2019-03-05T08:38:04.277Z,997.24
2019-03-05T08:39:57.254Z,997.18
2019-03-05T08:40:57.308Z,997.22
2019-03-05T08:42:50.299Z,997.27
2019-03-05T08:43:50.349Z,997.30
2019-03-05T08:45:43.331Z,997.34
2019-03-05T08:46:43.380Z,997.34
2019-03-05T08:48:36.367Z,997.32
2019-03-05T08:49:36.416Z,997.32
2019-03-05T08:51:29.414Z,997.39
2019-03-05T08:52:29.496Z,997.42
2019-03-05T08:54:22.451Z,997.43
2019-03-05T08:55:22.508Z,997.44
2019-03-05T08:57:15.486Z,997.46
2019-03-05T08:58:15.535Z,997.43
2019-03-05T09:00:08.529Z,997.39
2019-03-05T09:01:08.560Z,997.45
2019-03-05T09:03:01.552Z,997.40
2019-03-05T09:04:01.600Z,997.52
2019-03-05T09:05:54.582Z,997.58
2019-03-05T09:06:54.637Z,997.61
2019-03-05T09:08:47.622Z,997.55
2019-03-05T09:09:47.666Z,997.59
2019-03-05T09:11:40.650Z,997.60
2019-03-05T09:12:40.710Z,997.66
2019-03-05T09:14:34.585Z,997.59
2019-03-05T09:15:33.734Z,997.64
2019-03-05T09:17:26.721Z,997.69
2019-03-05T09:18:26.770Z,997.73
2019-03-05T09:20:19.747Z,997.70
2019-03-05T09:21:19.811Z,997.74
2019-03-05T09:23:12.789Z,997.69
2019-03-05T09:24:12.855Z,997.75
2019-03-05T09:26:05.824Z,997.77
2019-03-05T09:27:05.882Z,997.85
2019-03-05T09:28:58.870Z,997.84
2019-03-05T09:29:58.917Z,997.90
2019-03-05T09:31:51.910Z,997.90
2019-03-05T09:32:51.952Z,997.90
2019-03-05T09:34:44.937Z,997.89
2019-03-05T09:35:44.978Z,997.81
2019-03-05T09:37:37.992Z,997.88
2019-03-05T09:38:38.047Z,997.91
2019-03-05T09:40:31.025Z,997.94
2019-03-05T09:41:31.079Z,997.93
2019-03-05T09:43:24.059Z,997.84
2019-03-05T09:44:24.110Z,997.96
2019-03-05T09:46:17.099Z,997.86
2019-03-05T09:47:17.148Z,997.91
2019-03-05T09:49:10.144Z,997.95
2019-03-05T09:50:10.193Z,997.97
2019-03-05T09:52:03.174Z,997.97
2019-03-05T09:53:03.229Z,998.01
2019-03-05T09:54:56.217Z,998.04
2019-03-05T09:55:56.267Z,998.01
2019-03-05T09:57:49.255Z,998.10
2019-03-05T09:58:49.301Z,998.01
2019-03-05T10:00:42.279Z,998.10
2019-03-05T10:01:42.331Z,998.15
2019-03-05T10:03:35.325Z,998.14
2019-03-05T10:04:35.386Z,998.13
2019-03-05T10:06:28.349Z,998.19
2019-03-05T10:07:28.404Z,998.18
2019-03-05T10:09:21.405Z,998.22
2019-03-05T10:10:21.452Z,998.11
2019-03-05T10:12:14.427Z,998.20
2019-03-05T10:13:14.482Z,998.17
2019-03-05T10:15:07.463Z,998.21
2019-03-05T10:16:07.514Z,998.24
2019-03-05T10:18:11.787Z,998.24
2019-03-05T10:19:00.543Z,998.22
2019-03-05T10:20:53.525Z,998.19
2019-03-05T10:21:53.576Z,998.23
2019-03-05T10:23:46.565Z,998.20
2019-03-05T10:24:46.611Z,998.24
2019-03-05T10:26:39.587Z,998.27
2019-03-05T10:27:39.645Z,998.26
2019-03-05T10:29:32.634Z,998.23
2019-03-05T10:30:32.686Z,998.30
2019-03-05T10:32:25.668Z,998.23
2019-03-05T10:33:25.717Z,998.28
2019-03-05T10:35:20.639Z,998.35
2019-03-05T10:36:18.751Z,998.26
2019-03-05T10:38:11.735Z,998.35
2019-03-05T10:39:11.784Z,998.30
2019-03-05T10:41:04.778Z,998.36
2019-03-05T10:42:04.832Z,998.44
2019-03-05T10:43:57.817Z,998.47
2019-03-05T10:44:57.863Z,998.45
2019-03-05T10:46:50.841Z,998.46
2019-03-05T10:47:50.899Z,998.48
2019-03-05T10:49:43.885Z,998.51
2019-03-05T10:50:43.937Z,998.49
2019-03-05T10:52:36.915Z,998.51
2019-03-05T10:53:36.967Z,998.49
2019-03-05T10:55:29.956Z,998.52
2019-03-05T10:56:30.006Z,998.53
2019-03-05T10:58:33.196Z,998.52
2019-03-05T10:59:23.051Z,998.55
2019-03-05T11:01:16.537Z,998.54
2019-03-05T11:02:16.590Z,998.55
2019-03-05T11:04:09.577Z,998.56
2019-03-05T11:05:09.625Z,998.58
2019-03-05T11:07:02.602Z,998.62
2019-03-05T11:08:02.666Z,998.62
2019-03-05T11:09:55.664Z,998.59
2019-03-05T11:10:55.698Z,998.62
2019-03-05T11:12:48.673Z,998.67
2019-03-05T11:13:48.726Z,998.70
2019-03-05T11:15:41.712Z,998.70
2019-03-05T11:16:41.776Z,998.73
2019-03-05T11:18:34.746Z,998.75
2019-03-05T11:19:34.795Z,998.73
2019-03-05T11:21:27.784Z,998.76
2019-03-05T11:22:27.846Z,998.74
2019-03-05T11:24:20.822Z,998.79
2019-03-05T11:25:20.874Z,998.77
2019-03-05T11:27:13.849Z,998.75
2019-03-05T11:28:13.907Z,998.79
2019-03-05T11:30:06.894Z,998.84
2019-03-05T11:31:06.944Z,998.85
2019-03-05T11:32:59.932Z,998.78
2019-03-05T11:33:59.987Z,998.81
2019-03-05T11:35:53.038Z,998.84
2019-03-05T11:36:53.030Z,998.82
2019-03-05T11:38:46.181Z,998.85
2019-03-05T11:39:46.070Z,998.91
2019-03-05T11:41:39.067Z,998.91
2019-03-05T11:42:39.113Z,998.94
2019-03-05T11:44:32.619Z,999.02
2019-03-05T11:45:32.150Z,999.00
2019-03-05T11:47:25.149Z,999.03
2019-03-05T11:48:25.209Z,999.08
2019-03-05T11:50:18.191Z,999.08
2019-03-05T11:51:18.241Z,999.14
2019-03-05T11:53:11.220Z,999.16
2019-03-05T11:54:11.278Z,999.16
2019-03-05T11:56:04.267Z,999.18
2019-03-05T11:57:04.318Z,999.23
2019-03-05T11:58:57.305Z,999.33
2019-03-05T11:59:57.349Z,999.30
2019-03-05T12:01:51.832Z,999.29
2019-03-05T12:02:51.888Z,999.29
2019-03-05T12:04:44.874Z,999.27
2019-03-05T12:05:44.922Z,999.32
2019-03-05T12:07:37.899Z,999.35
2019-03-05T12:08:37.959Z,999.38
2019-03-05T12:10:30.943Z,999.39
2019-03-05T12:11:30.998Z,999.33
2019-03-05T12:13:23.973Z,999.43
2019-03-05T12:14:24.031Z,999.47
2019-03-05T12:16:17.036Z,999.48
2019-03-05T12:17:17.088Z,999.47
2019-03-05T12:19:10.069Z,999.47
2019-03-05T12:20:10.126Z,999.43
2019-03-05T12:22:03.107Z,999.50
2019-03-05T12:23:06.735Z,999.46
2019-03-05T12:24:57.686Z,999.48
2019-03-05T12:25:56.214Z,999.48
2019-03-05T12:27:49.181Z,999.57
2019-03-05T12:28:49.239Z,999.63
2019-03-05T12:30:42.226Z,999.47
2019-03-05T12:31:42.278Z,999.58
2019-03-05T12:33:35.255Z,999.62
2019-03-05T12:34:35.314Z,999.59
2019-03-05T12:36:28.298Z,999.60
2019-03-05T12:37:28.349Z,999.63
2019-03-05T12:39:21.335Z,999.60
2019-03-05T12:40:21.390Z,999.62
2019-03-05T12:42:14.366Z,999.62
2019-03-05T12:43:14.424Z,999.65
2019-03-05T12:45:07.409Z,999.64
2019-03-05T12:46:07.460Z,999.67
2019-03-05T12:48:00.442Z,999.59
2019-03-05T12:49:00.497Z,999.53
2019-03-05T12:50:53.485Z,999.61
2019-03-05T12:51:53.534Z,999.63
2019-03-05T12:53:46.515Z,999.60
2019-03-05T12:54:46.571Z,999.66
2019-03-05T12:56:39.561Z,999.63
2019-03-05T12:57:39.607Z,999.61
2019-03-05T12:59:32.590Z,999.66
2019-03-05T13:00:32.648Z,999.64
2019-03-05T13:02:25.643Z,999.67
2019-03-05T13:03:25.697Z,999.66
2019-03-05T13:05:18.682Z,999.66
2019-03-05T13:06:18.734Z,999.66
2019-03-05T13:08:11.721Z,999.68
2019-03-05T13:09:13.573Z,999.72
2019-03-05T13:11:04.773Z,999.69
2019-03-05T13:12:04.816Z,999.72
2019-03-05T13:14:06.219Z,999.68
2019-03-05T13:14:57.857Z,999.66
2019-03-05T13:16:50.842Z,999.65
2019-03-05T13:17:51.589Z,999.63
2019-03-05T13:19:44.437Z,999.65
2019-03-05T13:20:43.942Z,999.70
2019-03-05T13:22:36.932Z,999.76
2019-03-05T13:23:36.971Z,999.79
2019-03-05T13:25:30.032Z,999.79
2019-03-05T13:26:30.008Z,999.77
2019-03-05T13:28:23.008Z,999.80
2019-03-05T13:29:23.056Z,999.79
2019-03-05T13:31:16.061Z,999.76
2019-03-05T13:32:16.794Z,999.78
2019-03-05T13:34:09.070Z,999.74
2019-03-05T13:35:09.128Z,999.78
2019-03-05T13:37:02.118Z,999.82
2019-03-05T13:38:03.272Z,999.77
2019-03-05T13:39:58.141Z,999.83
2019-03-05T13:40:55.207Z,999.83
2019-03-05T13:42:48.186Z,999.84
2019-03-05T13:43:48.246Z,999.83
2019-03-05T13:45:43.777Z,999.93
2019-03-05T13:46:41.297Z,999.86
2019-03-05T13:48:34.279Z,999.89
2019-03-05T13:49:40.618Z,999.85
2019-03-05T13:51:27.341Z,999.88
2019-03-05T13:52:27.393Z,999.88
2019-03-05T13:54:20.378Z,999.96
2019-03-05T13:55:23.465Z,999.95
2019-03-05T13:57:15.318Z,999.97
2019-03-05T13:58:13.468Z,999.91
2019-03-05T14:00:07.388Z,1000.00
2019-03-05T14:01:06.509Z,999.95
2019-03-05T14:02:59.503Z,999.98
2019-03-05T14:03:59.559Z,999.94
2019-03-05T14:05:52.547Z,999.99
2019-03-05T14:06:52.601Z,999.95
2019-03-05T14:08:45.583Z,999.98
2019-03-05T14:09:45.662Z,1000.00
2019-03-05T14:11:38.639Z,1000.01
2019-03-05T14:12:38.673Z,999.97
2019-03-05T14:14:31.658Z,999.94
2019-03-05T14:15:31.708Z,999.96
2019-03-05T14:17:24.711Z,999.98
2019-03-05T14:18:24.755Z,999.98
2019-03-05T14:20:17.752Z,999.96
2019-03-05T14:21:17.799Z,1000.01
2019-03-05T14:23:10.772Z,1000.06
2019-03-05T14:24:10.835Z,1000.17
2019-03-05T14:26:03.825Z,1000.15
2019-03-05T14:27:03.869Z,1000.24
2019-03-05T14:28:56.848Z,1000.28
2019-03-05T14:29:56.894Z,1000.26
2019-03-05T14:31:49.890Z,1000.28
2019-03-05T14:32:49.951Z,1000.22
2019-03-05T14:34:42.916Z,1000.28
2019-03-05T14:35:42.975Z,1000.29
2019-03-05T14:37:35.966Z,1000.24
2019-03-05T14:38:36.101Z,1000.26
2019-03-05T14:40:29.030Z,1000.26
2019-03-05T14:41:29.082Z,1000.18
2019-03-05T14:43:22.068Z,1000.24
2019-03-05T14:44:22.098Z,1000.26
2019-03-05T14:46:15.121Z,1000.29
2019-03-05T14:47:15.139Z,1000.28
2019-03-05T14:49:08.143Z,1000.27
2019-03-05T14:50:08.212Z,1000.23
2019-03-05T14:52:01.205Z,1000.21
2019-03-05T14:53:01.239Z,1000.27
2019-03-05T14:54:54.256Z,1000.29
2019-03-05T14:55:54.648Z,1000.28
2019-03-05T14:57:47.317Z,1000.26
2019-03-05T14:58:47.382Z,1000.32
2019-03-05T15:00:40.323Z,1000.31
2019-03-05T15:01:40.471Z,1000.23
2019-03-05T15:03:33.420Z,1000.27
2019-03-05T15:04:33.471Z,1000.28
2019-03-05T15:06:26.429Z,1000.30
2019-03-05T15:07:26.523Z,1000.25
2019-03-05T15:09:19.494Z,1000.34
2019-03-05T15:10:19.516Z,1000.35
2019-03-05T15:12:12.522Z,1000.38
2019-03-05T15:13:17.304Z,1000.39
2019-03-05T15:15:05.581Z,1000.35
2019-03-05T15:16:05.615Z,1000.43
2019-03-05T15:17:58.646Z,1000.43
2019-03-05T15:18:58.683Z,1000.40
2019-03-05T15:20:51.661Z,1000.43
2019-03-05T15:21:51.734Z,1000.48
2019-03-05T15:23:44.701Z,1000.41
2019-03-05T15:24:44.751Z,1000.45
2019-03-05T15:26:37.777Z,1000.43
2019-03-05T15:27:37.785Z,1000.42
2019-03-05T15:29:30.766Z,1000.49
2019-03-05T15:30:30.888Z,1000.48
2019-03-05T15:32:23.826Z,1000.52
2019-03-05T15:33:23.897Z,1000.61
2019-03-05T15:35:16.841Z,1000.62
2019-03-05T15:38:09.892Z,1000.61
2019-03-05T15:39:09.932Z,1000.67
2019-03-05T15:41:02.928Z,1000.57
2019-03-05T15:42:03.003Z,1000.58
2019-03-05T15:43:56.002Z,1000.59
2019-03-05T15:44:56.026Z,1000.59
2019-03-05T15:46:48.994Z,1000.57
2019-03-05T15:47:49.069Z,1000.54
2019-03-05T15:49:42.060Z,1000.60
2019-03-05T15:50:42.192Z,1000.55
2019-03-05T15:52:35.103Z,1000.58
2019-03-05T15:53:35.182Z,1000.56
2019-03-05T15:55:28.091Z,1000.64
2019-03-05T15:56:28.151Z,1000.61
2019-03-05T15:58:21.156Z,1000.61
2019-03-05T15:59:21.225Z,1000.66
2019-03-05T16:01:22.067Z,1000.66
2019-03-05T16:02:14.729Z,1000.60
2019-03-05T16:04:07.719Z,1000.65
2019-03-05T16:05:11.939Z,1000.70
2019-03-05T16:07:00.750Z,1000.66
2019-03-05T16:08:01.294Z,1000.70
2019-03-05T16:09:53.792Z,1000.74
2019-03-05T16:10:54.641Z,1000.72
2019-03-05T16:12:46.836Z,1000.68
2019-03-05T16:13:46.886Z,1000.73
2019-03-05T16:15:41.817Z,1000.69
2019-03-05T16:16:39.919Z,1000.70
2019-03-05T16:18:32.905Z,1000.70
2019-03-05T16:19:32.956Z,1000.70
2019-03-05T16:21:25.933Z,1000.78
2019-03-05T16:22:25.995Z,1000.73
2019-03-05T16:24:19.001Z,1000.80
2019-03-05T16:25:19.050Z,1000.85
2019-03-05T16:27:12.039Z,1000.84
2019-03-05T16:28:12.088Z,1000.87
2019-03-05T16:30:05.063Z,1000.90
2019-03-05T16:31:07.685Z,1000.89
2019-03-05T16:33:00.034Z,1000.88
2019-03-05T16:33:58.160Z,1000.98
2019-03-05T16:35:52.298Z,1000.94
2019-03-05T16:36:51.192Z,1000.95
2019-03-05T16:38:44.183Z,1000.97
2019-03-05T16:39:46.310Z,1001.01
2019-03-05T16:41:37.218Z,1000.98
2019-03-05T16:42:37.275Z,1001.02
2019-03-05T16:44:30.257Z,1001.03
2019-03-05T16:45:30.308Z,1001.01
2019-03-05T16:47:23.295Z,1001.03
2019-03-05T16:48:23.345Z,1001.01
2019-03-05T16:50:16.327Z,1001.05
2019-03-05T16:51:16.382Z,1001.05
2019-03-05T16:53:09.368Z,1001.10
2019-03-05T16:54:09.417Z,1001.13
2019-03-05T16:56:02.415Z,1001.16
2019-03-05T16:57:02.459Z,1001.12
2019-03-05T16:58:55.444Z,1001.17
2019-03-05T16:59:55.494Z,1001.21
2019-03-05T17:01:48.980Z,1001.26
2019-03-05T17:02:49.034Z,1001.30
2019-03-05T17:04:42.049Z,1001.31
2019-03-05T17:05:42.071Z,1001.38
2019-03-05T17:07:35.160Z,1001.36
2019-03-05T17:08:35.128Z,1001.38
2019-03-05T17:10:29.971Z,1001.37
2019-03-05T17:11:28.164Z,1001.37
2019-03-05T17:13:21.154Z,1001.40
2019-03-05T17:14:21.197Z,1001.40
2019-03-05T17:16:14.288Z,1001.44
2019-03-05T17:17:14.239Z,1001.49
2019-03-05T17:19:07.229Z,1001.49
2019-03-05T17:20:07.314Z,1001.52
2019-03-05T17:22:00.293Z,1001.52
2019-03-05T17:23:00.307Z,1001.53
2019-03-05T17:24:53.289Z,1001.64
2019-03-05T17:25:53.342Z,1001.63
2019-03-05T17:27:46.322Z,1001.68
2019-03-05T17:28:46.371Z,1001.68
2019-03-05T17:30:39.367Z,1001.69
2019-03-05T17:31:39.421Z,1001.72
2019-03-05T17:33:32.410Z,1001.70
2019-03-05T17:34:32.449Z,1001.73
2019-03-05T17:36:25.431Z,1001.64
2019-03-05T17:37:25.489Z,1001.69
2019-03-05T17:39:18.486Z,1001.74
2019-03-05T17:40:18.520Z,1001.75
2019-03-05T17:42:11.501Z,1001.76
2019-03-05T17:43:11.561Z,1001.79
2019-03-05T17:45:04.541Z,1001.84
2019-03-05T17:46:04.589Z,1001.83
2019-03-05T17:47:57.572Z,1001.83
2019-03-05T17:48:57.622Z,1001.88
2019-03-05T17:50:50.597Z,1001.89
2019-03-05T17:51:50.656Z,1001.88
2019-03-05T17:53:43.634Z,1001.94